Time;durP1;ratioP1;P1;durP2;ratioP2;P2;SDS_P1;SDS_P2;PMS_P1;PMS_P2;Temp;Humidity;BMP_temperature;BMP_pressure;BME280_temperature;BME280_humidity;BME280_pressure;Samples;Min_cycle;Max_cycle;Signal;HPM_P1;HPM_P2
2022/01/09 00:00:01;;;;;;;;;0.00;0.00;;;;;6.94;67.91;99618.56;5050037;28;45728;-80
2022/01/09 00:02:26;;;;;;;;;0.00;0.00;;;;;7.11;67.79;99652.31;5039975;28;45465;-80
2022/01/09 00:04:51;;;;;;;;;0.00;0.00;;;;;7.18;67.34;99668.72;5042770;28;45428;-81
2022/01/09 00:07:17;;;;;;;;;0.00;0.00;;;;;7.14;67.64;99682.50;5040150;28;45467;-79
2022/01/09 00:09:44;;;;;;;;;0.00;0.00;;;;;7.14;67.91;99672.16;5039589;28;45429;-80
2022/01/09 00:12:11;;;;;;;;;0.00;0.00;;;;;7.04;67.39;99668.66;5039990;28;45517;-82
2022/01/09 00:14:36;;;;;;;;;0.00;0.00;;;;;6.99;67.93;99668.63;5047745;28;45564;-82
2022/01/09 00:17:02;;;;;;;;;1.00;0.00;;;;;7.10;67.90;99694.53;5041824;28;45357;-80
2022/01/09 00:19:28;;;;;;;;;1.00;0.00;;;;;6.96;67.44;99674.63;5042865;28;45682;-80
2022/01/09 00:21:53;;;;;;;;;0.00;0.00;;;;;7.03;68.15;99711.78;5043060;28;45367;-80
2022/01/09 00:24:19;;;;;;;;;0.00;0.00;;;;;6.96;67.77;99713.44;5043048;28;45600;-80
2022/01/09 00:26:44;;;;;;;;;0.00;0.00;;;;;6.97;67.60;99724.66;5041345;28;47594;-80
2022/01/09 00:29:10;;;;;;;;;0.00;0.00;;;;;6.91;67.36;99709.97;5042887;28;45302;-80
2022/01/09 00:31:38;;;;;;;;;0.00;0.00;;;;;6.96;67.63;99733.28;5043459;28;45450;-80
2022/01/09 00:34:04;;;;;;;;;0.00;0.00;;;;;6.86;67.86;99716.81;5045270;28;45445;-80
2022/01/09 00:36:30;;;;;;;;;0.00;0.00;;;;;6.67;67.41;99693.41;5062663;28;45479;-80
2022/01/09 00:38:56;;;;;;;;;0.00;0.00;;;;;6.90;67.46;99741.88;5062786;28;45430;-79
2022/01/09 00:41:21;;;;;;;;;0.00;0.00;;;;;6.81;68.00;99734.91;5062847;28;45631;-80
2022/01/09 00:43:47;;;;;;;;;0.00;0.00;;;;;6.64;68.40;99718.38;5063012;28;45343;-80
2022/01/09 00:46:12;;;;;;;;;0.00;0.00;;;;;6.58;68.43;99708.84;5045621;28;45525;-80
2022/01/09 00:48:37;;;;;;;;;0.00;0.00;;;;;6.56;68.31;99726.91;5024413;28;45402;-80
2022/01/09 00:51:03;;;;;;;;;0.00;0.00;;;;;6.64;68.34;99745.09;5024795;28;45407;-81
2022/01/09 00:53:28;;;;;;;;;0.00;0.00;;;;;6.62;68.34;99748.53;5042798;28;45362;-80
2022/01/09 00:55:54;;;;;;;;;0.00;0.00;;;;;6.60;68.62;99743.34;5042423;28;45950;-80
2022/01/09 00:58:19;;;;;;;;;0.00;0.00;;;;;6.53;68.37;99749.31;5024350;28;45955;-80
2022/01/09 01:00:45;;;;;;;;;0.00;0.00;;;;;6.66;68.53;99771.84;5057183;28;45366;-80
2022/01/09 01:03:10;;;;;;;;;0.00;0.00;;;;;6.52;68.58;99751.03;5027756;28;45725;-80
2022/01/09 01:05:35;;;;;;;;;0.00;0.00;;;;;6.76;68.63;99793.50;5062240;28;45618;-81
2022/01/09 01:08:01;;;;;;;;;0.00;0.00;;;;;6.42;68.22;99747.50;5062498;28;45401;-80
2022/01/09 01:10:27;;;;;;;;;0.00;0.00;;;;;6.52;68.47;99778.63;5044176;28;45318;-81
2022/01/09 01:12:52;;;;;;;;;0.00;0.00;;;;;6.50;67.74;99788.94;5062805;28;45759;-80
2022/01/09 01:15:18;;;;;;;;;0.00;0.00;;;;;6.58;67.72;99810.56;5049109;28;45356;-80
2022/01/09 01:17:44;;;;;;;;;0.00;0.00;;;;;6.76;67.64;99844.34;5023942;28;45948;-81
2022/01/09 01:20:11;;;;;;;;;1.00;0.00;;;;;6.78;67.85;99846.13;5042341;28;45459;-80
2022/01/09 01:22:37;;;;;;;;;0.25;0.00;;;;;6.47;67.09;99804.44;5042222;28;45506;-80
2022/01/09 01:25:05;;;;;;;;;0.00;0.00;;;;;6.52;67.48;99823.44;5032183;28;46325;-81
2022/01/09 01:27:30;;;;;;;;;0.00;0.00;;;;;6.38;67.47;99819.84;5003309;28;45384;-80
2022/01/09 01:29:56;;;;;;;;;0.00;0.00;;;;;6.66;67.40;99857.22;5022003;28;45373;-80
2022/01/09 01:32:22;;;;;;;;;0.00;0.00;;;;;6.37;67.10;99826.72;5023215;28;45389;-80
2022/01/09 01:34:48;;;;;;;;;0.00;0.00;;;;;6.60;67.41;99885.59;5041997;28;45913;-80
2022/01/09 01:37:13;;;;;;;;;0.00;0.00;;;;;6.50;67.64;99876.00;5023971;28;45406;-79
2022/01/09 01:39:39;;;;;;;;;1.00;0.00;;;;;6.64;67.35;99899.44;5042105;28;45375;-79
2022/01/09 01:42:04;;;;;;;;;0.00;0.00;;;;;6.47;67.91;99887.16;5042141;28;45562;-80
2022/01/09 01:44:46;;;;;;;;;0.00;0.00;;;;;6.62;67.77;99906.28;5041920;28;45364;-80
2022/01/09 01:47:13;;;;;;;;;0.00;0.00;;;;;6.56;67.38;99920.03;5040924;28;45411;-79
2022/01/09 01:49:39;;;;;;;;;1.00;1.00;;;;;6.61;68.28;99927.84;5041809;28;45435;-80
2022/01/09 01:52:05;;;;;;;;;0.00;0.00;;;;;6.46;68.21;99930.25;5042139;28;45452;-81
2022/01/09 01:54:32;;;;;;;;;0.00;0.00;;;;;6.31;68.52;99923.16;5041563;28;46204;-80
2022/01/09 01:56:57;;;;;;;;;0.00;0.00;;;;;6.43;69.02;99944.88;5023526;28;45521;-80
2022/01/09 01:59:23;;;;;;;;;0.00;0.00;;;;;6.22;69.51;99938.56;5041659;28;45423;-80
2022/01/09 02:01:48;;;;;;;;;0.00;0.00;;;;;6.25;70.01;99964.44;5034871;28;45524;-80
2022/01/09 02:04:13;;;;;;;;;0.00;0.00;;;;;6.24;70.10;99961.81;5021573;28;45840;-80
2022/01/09 02:06:39;;;;;;;;;0.00;0.00;;;;;6.08;70.15;99936.66;5021540;28;45381;-80
2022/01/09 02:09:05;;;;;;;;;0.00;0.00;;;;;5.99;70.49;99949.41;5021482;28;45297;-80
2022/01/09 02:11:32;;;;;;;;;0.00;0.00;;;;;6.15;70.73;99966.03;5021988;28;45352;-80
2022/01/09 02:13:58;;;;;;;;;0.00;0.00;;;;;5.92;70.46;99939.81;5003590;28;47242;-80
2022/01/09 02:16:24;;;;;;;;;0.00;0.00;;;;;5.96;70.69;99939.91;4988169;28;45810;-80
2022/01/09 02:19:08;;;;;;;;;0.00;0.00;;;;;6.07;70.95;99981.41;5041496;28;45463;-79
2022/01/09 02:21:33;;;;;;;;;1.00;0.00;;;;;6.23;70.54;99999.75;5023808;28;45526;-81
2022/01/09 02:23:59;;;;;;;;;0.50;0.00;;;;;5.97;71.11;99953.66;5041965;28;45857;-79
2022/01/09 02:26:24;;;;;;;;;0.00;0.00;;;;;6.13;70.78;99997.88;5061768;28;45488;-80
2022/01/09 02:28:51;;;;;;;;;0.00;0.00;;;;;5.80;70.98;99945.66;5061800;28;45417;-79
2022/01/09 02:31:17;;;;;;;;;0.25;0.00;;;;;6.10;71.21;100003.88;5055148;28;45564;-80
2022/01/09 02:33:58;;;;;;;;;0.00;0.00;;;;;6.05;70.83;99974.50;5060463;28;46038;-79
2022/01/09 02:36:38;;;;;;;;;0.00;0.00;;;;;5.23;70.73;99857.88;5055624;28;45445;-80
2022/01/09 02:39:15;;;;;;;;;0.00;0.00;;;;;6.02;71.26;99989.91;5054479;28;45764;-81
2022/01/09 02:41:41;;;;;;;;;0.00;0.00;;;;;5.87;70.66;99975.03;5043049;28;45309;-79
2022/01/09 02:44:08;;;;;;;;;0.00;0.00;;;;;6.05;70.53;100024.47;5060874;28;45382;-80
2022/01/09 02:47:01;;;;;;;;;0.00;0.00;;;;;6.12;70.14;100025.41;5061012;28;45822;-82
2022/01/09 02:49:27;;;;;;;;;0.00;0.00;;;;;6.09;70.55;100022.78;5060674;28;45469;-80
2022/01/09 02:51:52;;;;;;;;;0.00;0.00;;;;;5.99;70.04;100001.06;5043074;28;45492;-79
2022/01/09 02:57:02;;;;;;;;;0.00;0.00;;;;;6.03;69.26;100009.75;5046675;28;45419;-79
2022/01/09 02:59:27;;;;;;;;;0.00;0.00;;;;;6.06;69.45;100031.38;5040777;28;45459;-79
2022/01/09 03:01:53;;;;;;;;;0.00;0.00;;;;;5.78;69.52;100002.47;5040817;28;45526;-79
2022/01/09 03:04:18;;;;;;;;;2.00;0.00;;;;;5.79;69.56;100009.38;5040643;28;45472;-79
2022/01/09 03:06:43;;;;;;;;;0.00;0.00;;;;;5.99;69.79;100042.41;5040772;28;45498;-79
2022/01/09 03:09:09;;;;;;;;;0.00;0.00;;;;;6.04;69.69;100047.69;5022748;28;45355;-79
2022/01/09 03:11:36;;;;;;;;;0.00;0.00;;;;;5.83;69.89;100015.47;5035053;28;45502;-79
2022/01/09 03:14:01;;;;;;;;;0.00;0.00;;;;;6.00;69.98;100056.22;5060556;28;47044;-80
2022/01/09 03:16:27;;;;;;;;;0.00;0.00;;;;;5.91;70.23;100046.59;5060426;28;45481;-79
2022/01/09 03:18:52;;;;;;;;;0.00;0.00;;;;;5.72;70.07;100032.50;5060773;28;45319;-79
2022/01/09 03:21:17;;;;;;;;;0.00;0.00;;;;;5.72;70.43;100020.44;5042676;28;45401;-79
2022/01/09 03:23:52;;;;;;;;;0.00;0.00;;;;;5.93;70.38;100050.06;5060359;28;46621;-79
2022/01/09 03:26:36;;;;;;;;;0.00;0.00;;;;;5.85;69.95;100031.84;5047893;28;45541;-79
2022/01/09 03:29:19;;;;;;;;;0.00;0.00;;;;;5.92;69.94;100038.00;5040321;28;45419;-79
2022/01/09 03:32:00;;;;;;;;;0.00;0.00;;;;;6.09;70.12;100061.53;5043330;28;45613;-79
2022/01/09 03:34:41;;;;;;;;;0.00;0.00;;;;;5.86;69.92;100033.59;5060307;28;46154;-79
2022/01/09 03:37:07;;;;;;;;;0.00;0.00;;;;;5.94;69.89;100063.00;5042083;28;45460;-79
2022/01/09 03:39:32;;;;;;;;;0.00;0.00;;;;;6.04;70.14;100070.94;5060038;28;45391;-79
2022/01/09 03:41:59;;;;;;;;;0.00;0.00;;;;;6.09;70.56;100095.13;5040627;28;45739;-80
2022/01/09 03:44:25;;;;;;;;;3.00;0.00;;;;;5.87;70.42;100073.19;5040204;28;46190;-80
2022/01/09 03:46:51;;;;;;;;;0.00;0.00;;;;;5.98;70.71;100117.31;5040082;28;45779;-79
2022/01/09 03:49:16;;;;;;;;;0.00;0.00;;;;;5.91;71.11;100119.78;5040311;28;45340;-79
2022/01/09 03:51:44;;;;;;;;;0.00;0.00;;;;;5.81;70.98;100116.19;5042656;28;45451;-79
2022/01/09 03:54:10;;;;;;;;;0.00;0.00;;;;;5.76;71.71;100094.53;5043519;28;45407;-80
2022/01/09 03:56:35;;;;;;;;;0.00;0.00;;;;;5.58;71.69;100084.78;5062330;28;45414;-79
2022/01/09 03:59:00;;;;;;;;;0.00;0.00;;;;;5.38;71.38;100045.66;5063955;28;45402;-80
2022/01/09 04:01:26;;;;;;;;;0.00;0.00;;;;;5.55;72.09;100098.47;5064076;28;45323;-79
2022/01/09 04:03:52;;;;;;;;;0.00;0.00;;;;;5.45;71.88;100097.44;5028944;28;46632;-80
2022/01/09 04:06:18;;;;;;;;;0.00;0.00;;;;;5.37;72.38;100087.81;5063651;28;45435;-80
2022/01/09 04:08:43;;;;;;;;;0.00;0.00;;;;;5.15;72.48;100061.56;5063761;28;45363;-79
2022/01/09 04:11:10;;;;;;;;;0.00;0.00;;;;;5.12;72.38;100049.50;5055393;28;45544;-79
2022/01/09 04:13:38;;;;;;;;;0.00;0.00;;;;;5.09;72.86;100039.09;5043652;28;45364;-79
2022/01/09 04:16:04;;;;;;;;;0.00;0.00;;;;;5.03;72.77;100034.66;5025203;28;45464;-79
2022/01/09 04:18:31;;;;;;;;;0.00;0.00;;;;;5.14;73.38;100042.63;5025610;28;45466;-79
2022/01/09 04:20:57;;;;;;;;;0.00;0.00;;;;;5.34;72.74;100075.72;5043735;28;45475;-79
2022/01/09 04:23:23;;;;;;;;;2.00;0.00;;;;;5.45;73.24;100097.44;5043171;28;46067;-79
2022/01/09 04:25:49;;;;;;;;;0.00;0.00;;;;;5.34;73.09;100080.88;5031863;28;45377;-79
2022/01/09 04:28:15;;;;;;;;;0.00;0.00;;;;;5.56;72.46;100115.72;5043204;28;45407;-79
2022/01/09 04:30:41;;;;;;;;;1.00;1.00;;;;;5.20;73.02;100057.38;5043838;28;45356;-79
2022/01/09 04:33:08;;;;;;;;;0.00;0.00;;;;;5.65;72.93;100114.16;5042741;28;45436;-79
2022/01/09 04:35:34;;;;;;;;;0.00;0.00;;;;;5.41;72.46;100056.91;5025255;28;45703;-79
2022/01/09 04:37:59;;;;;;;;;0.00;0.00;;;;;5.52;72.57;100076.91;5042973;28;45485;-79
2022/01/09 04:40:25;;;;;;;;;0.00;0.00;;;;;5.46;72.56;100067.34;5013452;28;45476;-80
2022/01/09 04:42:57;;;;;;;;;0.00;0.00;;;;;5.64;72.40;100090.03;5022765;28;45463;-78
2022/01/09 04:45:25;;;;;;;;;0.00;0.00;;;;;5.66;72.19;100077.16;5022834;28;45748;-78
2022/01/09 04:47:52;;;;;;;;;0.00;0.00;;;;;5.75;71.74;100097.09;5005077;28;45413;-79
2022/01/09 04:50:27;;;;;;;;;0.00;0.00;;;;;5.66;72.29;100083.19;5023294;28;45369;-79
2022/01/09 04:52:59;;;;;;;;;0.00;0.00;;;;;5.72;72.24;100104.81;5023019;28;47249;-79
2022/01/09 04:55:27;;;;;;;;;0.00;0.00;;;;;5.66;72.43;100101.28;5007108;28;45532;-79
2022/01/09 04:57:53;;;;;;;;;0.00;0.00;;;;;5.71;72.18;100119.44;5043178;28;45839;-79
2022/01/09 05:00:18;;;;;;;;;0.00;0.00;;;;;5.47;71.79;100068.19;5024714;28;45588;-79
2022/01/09 05:02:43;;;;;;;;;0.00;0.00;;;;;5.59;72.49;100089.09;5042598;28;45466;-79
2022/01/09 05:05:10;;;;;;;;;0.00;0.00;;;;;5.67;72.50;100092.66;5043253;28;45297;-79
2022/01/09 05:07:36;;;;;;;;;1.00;0.00;;;;;5.74;72.14;100106.59;5042936;28;45464;-79
2022/01/09 05:10:03;;;;;;;;;0.00;0.00;;;;;5.65;72.15;100078.00;5035404;28;45293;-78
2022/01/09 05:12:29;;;;;;;;;1.00;0.00;;;;;5.61;72.36;100073.63;5005128;28;47082;-79
2022/01/09 05:14:54;;;;;;;;;0.00;0.00;;;;;5.86;72.62;100098.19;5004870;28;45415;-79
2022/01/09 05:17:19;;;;;;;;;1.00;0.00;;;;;5.60;72.03;100072.75;5004893;28;45404;-79
2022/01/09 05:19:46;;;;;;;;;0.00;0.00;;;;;5.99;72.67;100114.75;5005128;28;45331;-79
2022/01/09 05:22:12;;;;;;;;;0.00;0.00;;;;;5.90;72.06;100105.13;5022595;28;47052;-79
2022/01/09 05:24:37;;;;;;;;;0.00;0.00;;;;;5.95;72.11;100125.91;5019851;28;45439;-79
2022/01/09 05:27:03;;;;;;;;;0.00;0.00;;;;;6.03;72.05;100134.63;5042357;28;45451;-81
2022/01/09 05:29:28;;;;;;;;;0.00;0.00;;;;;5.95;72.05;100136.22;5042595;28;45503;-80
2022/01/09 05:31:54;;;;;;;;;0.00;0.00;;;;;6.03;72.04;100119.13;5023966;28;47417;-79
2022/01/09 05:34:19;;;;;;;;;0.00;0.00;;;;;6.11;72.08;100100.34;5059620;28;45371;-79
2022/01/09 05:36:45;;;;;;;;;2.50;0.00;;;;;6.06;72.17;100085.63;5062055;28;45382;-79
2022/01/09 05:39:10;;;;;;;;;0.00;0.00;;;;;6.26;71.65;100123.88;5062362;28;45348;-79
2022/01/09 05:41:37;;;;;;;;;0.00;0.00;;;;;6.12;71.77;100105.53;5062076;28;46053;-79
2022/01/09 05:44:02;;;;;;;;;0.00;0.00;;;;;6.02;71.78;100090.69;5038560;28;45424;-79
2022/01/09 05:46:28;;;;;;;;;0.00;0.00;;;;;6.04;72.17;100083.88;5041467;28;45729;-79
2022/01/09 05:48:53;;;;;;;;;1.00;1.00;;;;;5.95;71.87;100077.66;5042253;28;45441;-79
2022/01/09 05:51:19;;;;;;;;;0.00;0.00;;;;;6.30;71.60;100128.25;5042359;28;46121;-79
2022/01/09 05:53:44;;;;;;;;;0.00;0.00;;;;;5.96;71.63;100131.09;5061877;28;45464;-79
2022/01/09 05:56:10;;;;;;;;;0.50;0.00;;;;;5.94;70.82;100156.03;5061771;28;45422;-79
2022/01/09 05:58:35;;;;;;;;;0.00;0.00;;;;;5.56;71.06;100115.72;5042147;28;45423;-79
2022/01/09 06:01:03;;;;;;;;;0.00;0.00;;;;;5.54;71.89;100101.03;5060515;28;46072;-80
2022/01/09 06:03:28;;;;;;;;;0.00;0.00;;;;;5.50;71.84;100099.22;5060435;28;45421;-80
2022/01/09 06:05:54;;;;;;;;;0.00;0.00;;;;;5.75;71.83;100139.31;5039161;28;45547;-81
2022/01/09 06:08:19;;;;;;;;;0.00;0.00;;;;;5.67;72.42;100118.50;5060653;28;45920;-80
2022/01/09 06:10:44;;;;;;;;;0.00;0.00;;;;;5.67;72.50;100105.59;5060559;28;45596;-81
2022/01/09 06:13:10;;;;;;;;;0.00;0.00;;;;;5.85;71.80;100131.75;5060715;28;45286;-80
2022/01/09 06:15:35;;;;;;;;;0.00;0.00;;;;;5.86;72.46;100126.59;5054031;28;45292;-80
2022/01/09 06:18:00;;;;;;;;;1.00;0.00;;;;;5.47;72.42;100071.66;5041796;28;45355;-80
2022/01/09 06:20:26;;;;;;;;;0.00;0.00;;;;;5.94;72.55;100135.34;5041956;28;45313;-80
2022/01/09 06:22:51;;;;;;;;;0.00;0.00;;;;;5.99;72.27;100138.03;5041233;28;45364;-80
2022/01/09 06:25:17;;;;;;;;;0.00;0.00;;;;;5.82;72.07;100125.66;5022806;28;45391;-80
2022/01/09 06:27:42;;;;;;;;;0.00;0.00;;;;;5.85;72.23;100129.16;5040092;28;45554;-80
2022/01/09 06:30:09;;;;;;;;;0.25;0.25;;;;;5.65;72.24;100101.22;5047084;28;45747;-80
2022/01/09 06:32:35;;;;;;;;;1.00;1.00;;;;;5.79;72.31;100120.44;5059634;28;45489;-80
2022/01/09 06:35:00;;;;;;;;;0.00;0.00;;;;;5.76;72.09;100120.38;5058198;28;45457;-80
2022/01/09 06:37:26;;;;;;;;;0.00;0.00;;;;;5.93;72.28;100145.66;5058263;28;45522;-79
2022/01/09 06:39:51;;;;;;;;;0.00;0.00;;;;;5.80;72.06;100142.88;5059472;28;46466;-79
2022/01/09 06:42:17;;;;;;;;;0.00;0.00;;;;;5.75;72.34;100123.81;5059842;28;45351;-80
2022/01/09 06:44:42;;;;;;;;;0.00;0.00;;;;;5.85;72.48;100131.75;5059913;28;45426;-79
2022/01/09 06:47:08;;;;;;;;;0.00;0.00;;;;;5.74;72.25;100113.44;5042664;28;45435;-80
2022/01/09 06:49:34;;;;;;;;;0.00;0.00;;;;;5.90;72.29;100138.72;5059563;28;45572;-80
2022/01/09 06:52:00;;;;;;;;;0.00;0.00;;;;;6.05;72.44;100163.13;5058861;28;45393;-80
2022/01/09 06:54:25;;;;;;;;;3.00;0.00;;;;;5.96;72.16;100154.34;5059406;28;45398;-80
2022/01/09 06:56:51;;;;;;;;;0.00;0.00;;;;;5.97;72.14;100144.84;5059688;28;45454;-80
2022/01/09 06:59:16;;;;;;;;;0.00;0.00;;;;;6.03;72.14;100155.31;5040675;28;46819;-80
2022/01/09 07:01:42;;;;;;;;;0.00;0.00;;;;;5.84;72.18;100141.19;5040782;28;46404;-80
2022/01/09 07:04:07;;;;;;;;;0.00;0.00;;;;;5.87;72.14;100142.94;5059377;28;45356;-80
2022/01/09 07:06:34;;;;;;;;;0.00;0.00;;;;;5.70;72.06;100115.13;5050929;28;45526;-80
2022/01/09 07:08:59;;;;;;;;;0.00;0.00;;;;;5.66;72.34;100124.50;5041102;28;45440;-80
2022/01/09 07:11:25;;;;;;;;;0.00;0.00;;;;;5.68;72.27;100122.84;5059357;28;45405;-81
2022/01/09 07:13:50;;;;;;;;;0.00;0.00;;;;;5.86;72.47;100157.59;5059240;28;45343;-80
2022/01/09 07:16:16;;;;;;;;;0.00;0.00;;;;;5.88;72.30;100167.97;5041562;28;45382;-79
2022/01/09 07:18:41;;;;;;;;;0.00;0.00;;;;;5.86;72.04;100169.63;5058946;28;46490;-80
2022/01/09 07:21:07;;;;;;;;;0.00;0.00;;;;;5.79;72.67;100142.84;5058785;28;45409;-80
2022/01/09 07:23:32;;;;;;;;;0.00;0.00;;;;;5.49;72.38;100074.25;5058289;28;45552;-81
2022/01/09 07:25:57;;;;;;;;;0.00;0.00;;;;;5.85;72.62;100155.00;4998542;28;1187020;-82
2022/01/09 07:28:23;;;;;;;;;0.00;0.00;;;;;5.81;72.73;100143.72;5031564;28;45923;-80
2022/01/09 07:30:49;;;;;;;;;0.00;0.00;;;;;5.84;72.79;100151.53;5027207;28;45399;-81
2022/01/09 07:33:14;;;;;;;;;0.00;0.00;;;;;5.96;72.45;100168.97;5043700;28;45368;-81
2022/01/09 07:35:40;;;;;;;;;0.00;0.00;;;;;5.81;72.43;100143.72;5029755;28;45359;-83
2022/01/09 07:38:05;;;;;;;;;0.00;0.00;;;;;5.87;72.87;100158.44;5036785;28;45616;-80
2022/01/09 07:40:31;;;;;;;;;0.00;0.00;;;;;5.64;72.13;100128.75;5041075;28;45392;-80
2022/01/09 07:42:56;;;;;;;;;0.25;0.25;;;;;5.87;72.76;100166.19;5041706;28;47030;-81
2022/01/09 07:45:25;;;;;;;;;0.00;0.00;;;;;5.50;72.74;100092.38;5043787;28;45617;-80
2022/01/09 07:47:51;;;;;;;;;1.25;1.25;;;;;5.30;72.69;100076.50;5046184;28;47132;-81
2022/01/09 07:50:17;;;;;;;;;0.75;0.75;;;;;5.54;72.26;100129.44;5043139;28;45828;-81
2022/01/09 07:52:42;;;;;;;;;1.00;1.00;;;;;5.31;72.84;100110.09;5033079;28;45409;-81
2022/01/09 07:55:09;;;;;;;;;0.25;0.25;;;;;5.67;72.76;100148.63;5035798;28;45802;-81
2022/01/09 07:57:34;;;;;;;;;1.25;0.00;;;;;5.70;73.11;100170.22;5037411;28;45381;-81
2022/01/09 08:00:03;;;;;;;;;0.00;0.00;;;;;5.55;73.18;100144.09;5041284;28;45756;-82
2022/01/09 08:02:29;;;;;;;;;2.00;0.00;;;;;5.52;73.16;100132.00;5042469;28;45589;-81
2022/01/09 08:04:54;;;;;;;;;0.00;0.00;;;;;5.42;72.77;100133.50;5042761;28;45538;-81
2022/01/09 08:07:20;;;;;;;;;0.00;0.00;;;;;5.19;73.13;100094.34;5038600;28;46002;-80
2022/01/09 08:09:46;;;;;;;;;0.00;0.00;;;;;5.57;73.09;100151.03;5042037;28;45483;-81
2022/01/09 08:12:14;;;;;;;;;0.00;0.00;;;;;5.05;73.14;100061.38;5042155;28;45801;-81
2022/01/09 08:14:41;;;;;;;;;0.00;0.00;;;;;5.19;72.84;100108.13;5042361;28;45366;-81
2022/01/09 08:17:06;;;;;;;;;0.00;0.00;;;;;5.29;73.26;100129.81;5041786;28;46613;-81
2022/01/09 08:19:32;;;;;;;;;0.00;0.00;;;;;5.50;73.04;100177.56;5041170;28;45370;-81
2022/01/09 08:21:58;;;;;;;;;0.00;0.00;;;;;5.52;73.00;100175.03;5033117;28;45740;-80
2022/01/09 08:24:24;;;;;;;;;0.00;0.00;;;;;5.49;73.40;100174.94;5031247;28;45459;-80
2022/01/09 08:26:50;;;;;;;;;0.00;0.00;;;;;5.29;72.72;100139.25;5061575;28;45370;-81
2022/01/09 08:29:16;;;;;;;;;0.00;0.00;;;;;5.34;72.98;100140.25;5062596;28;45437;-81
2022/01/09 08:31:41;;;;;;;;;0.00;0.00;;;;;5.49;72.91;100147.44;5059449;28;45449;-81
2022/01/09 08:34:07;;;;;;;;;0.00;0.00;;;;;5.54;72.64;100152.66;5057292;28;45442;-80
2022/01/09 08:36:33;;;;;;;;;0.00;0.00;;;;;5.65;73.25;100155.47;5061953;28;45772;-79
2022/01/09 08:38:59;;;;;;;;;0.00;0.00;;;;;5.67;72.43;100162.41;5052049;28;45503;-79
2022/01/09 08:41:25;;;;;;;;;0.00;0.00;;;;;5.66;73.03;100150.34;5059755;28;45421;-80
2022/01/09 08:43:50;;;;;;;;;0.00;0.00;;;;;5.66;72.97;100142.59;5057033;28;45399;-81
2022/01/09 08:46:15;;;;;;;;;0.00;0.00;;;;;6.00;72.58;100175.94;5043339;28;45792;-80
2022/01/09 08:48:41;;;;;;;;;0.00;0.00;;;;;6.02;72.39;100176.84;5063315;28;45379;-80
2022/01/09 08:51:07;;;;;;;;;0.00;0.00;;;;;6.07;71.95;100170.06;5063190;28;45387;-77
2022/01/09 08:53:35;;;;;;;;;0.00;0.00;;;;;6.16;72.11;100176.25;5061416;28;45705;-79
2022/01/09 08:56:05;;;;;;;;;0.00;0.00;;;;;6.24;72.35;100174.66;5025404;28;46020;-82
2022/01/09 08:58:31;;;;;;;;;0.00;0.00;;;;;6.37;72.16;100175.72;5044123;28;45396;-78
2022/01/09 09:00:56;;;;;;;;;0.00;0.00;;;;;6.30;72.30;100168.72;5057928;28;45520;-80
2022/01/09 09:03:25;;;;;;;;;0.00;0.00;;;;;6.27;71.87;100179.88;5043123;28;45380;-80
2022/01/09 09:05:51;;;;;;;;;0.00;0.00;;;;;6.24;71.57;100179.84;5061937;28;45438;-80
2022/01/09 09:08:16;;;;;;;;;0.00;0.00;;;;;6.13;71.81;100189.13;5060514;28;45398;-80
2022/01/09 09:10:42;;;;;;;;;0.00;0.00;;;;;6.18;71.84;100200.41;5043042;28;45716;-80
2022/01/09 09:13:07;;;;;;;;;0.00;0.00;;;;;6.03;71.71;100196.66;5058481;28;45810;-78
2022/01/09 09:15:33;;;;;;;;;1.00;1.00;;;;;5.99;72.04;100204.31;5056897;28;46085;-78
2022/01/09 09:18:01;;;;;;;;;0.00;0.00;;;;;5.85;72.08;100194.59;5054276;28;45560;-80
2022/01/09 09:20:26;;;;;;;;;0.00;0.00;;;;;5.96;72.48;100215.47;5061675;28;45374;-80
2022/01/09 09:22:52;;;;;;;;;0.00;0.00;;;;;5.55;72.58;100157.84;5056054;28;45297;-79
2022/01/09 09:25:18;;;;;;;;;0.00;0.00;;;;;5.91;73.04;100224.88;5053220;28;45417;-79
2022/01/09 09:27:44;;;;;;;;;0.00;0.00;;;;;5.67;72.86;100187.38;5058455;28;45990;-79
2022/01/09 09:30:10;;;;;;;;;0.00;0.00;;;;;5.75;72.92;100227.13;5034269;28;45462;-79
2022/01/09 09:32:36;;;;;;;;;0.00;0.00;;;;;5.59;73.35;100213.03;5058368;28;45528;-78
2022/01/09 09:35:03;;;;;;;;;0.00;0.00;;;;;5.58;73.92;100224.22;5028698;28;45549;-78
2022/01/09 09:37:29;;;;;;;;;0.00;0.00;;;;;5.58;73.87;100227.66;5028274;28;45486;-81
2022/01/09 09:39:54;;;;;;;;;0.00;0.00;;;;;5.46;74.18;100188.69;5051603;28;45508;-80
2022/01/09 09:42:20;;;;;;;;;0.00;0.00;;;;;5.42;74.16;100179.13;5042662;28;45335;-78
2022/01/09 09:44:46;;;;;;;;;0.00;0.00;;;;;5.61;74.29;100198.47;5038344;28;46885;-79
2022/01/09 09:47:11;;;;;;;;;0.00;0.00;;;;;5.83;74.60;100220.38;5049420;28;45537;-79
2022/01/09 09:49:37;;;;;;;;;0.50;0.00;;;;;5.95;73.91;100226.66;5042410;28;45432;-79
2022/01/09 09:52:06;;;;;;;;;1.00;1.00;;;;;6.02;74.46;100246.59;5055235;28;45766;-80
2022/01/09 09:54:31;;;;;;;;;0.00;0.00;;;;;6.01;73.33;100234.53;5041157;28;46143;-79
2022/01/09 09:56:57;;;;;;;;;0.00;0.00;;;;;6.02;73.81;100236.28;5047490;28;45428;-79
2022/01/09 09:59:29;;;;;;;;;0.00;0.00;;;;;6.15;74.03;100247.75;5055745;28;45754;-80
2022/01/09 10:01:55;;;;;;;;;0.00;0.00;;;;;6.15;73.46;100239.97;5051514;28;45828;-81
2022/01/09 10:04:20;;;;;;;;;0.00;0.00;;;;;6.11;73.42;100232.13;5052157;28;45937;-81
2022/01/09 10:06:48;;;;;;;;;0.00;0.00;;;;;6.15;73.01;100244.28;5035432;28;45459;-81
2022/01/09 10:09:24;;;;;;;;;0.00;0.00;;;;;6.09;72.50;100229.53;5042379;28;45458;-80
2022/01/09 10:11:52;;;;;;;;;0.00;0.00;;;;;6.27;72.40;100248.81;5057674;28;45588;-81
2022/01/09 10:14:26;;;;;;;;;0.00;0.00;;;;;6.30;72.33;100228.19;5046362;28;45489;-79
2022/01/09 10:17:06;;;;;;;;;0.00;0.00;;;;;5.98;72.59;100182.78;5058657;28;45800;-80
2022/01/09 10:19:45;;;;;;;;;1.00;0.00;;;;;6.34;72.45;100237.72;5039720;28;45455;-80
2022/01/09 10:22:36;;;;;;;;;0.00;0.00;;;;;6.13;72.54;100220.13;5032087;28;45561;-80
2022/01/09 10:25:32;;;;;;;;;0.00;0.00;;;;;6.07;72.98;100228.66;5039237;28;47011;-81
2022/01/09 10:28:11;;;;;;;;;0.00;0.00;;;;;6.23;73.29;100245.31;5002126;28;45475;-83
2022/01/09 10:30:43;;;;;;;;;4.00;0.00;;;;;5.64;72.88;100153.75;5040606;28;45372;-84
2022/01/09 10:33:12;;;;;;;;;0.00;0.00;;;;;6.25;73.15;100246.19;5040757;28;45587;-81
2022/01/09 10:35:39;;;;;;;;;0.00;0.00;;;;;6.28;73.27;100255.75;5054364;28;45886;-81
2022/01/09 10:38:17;;;;;;;;;0.00;0.00;;;;;6.08;72.92;100220.03;5044220;28;45539;-82
2022/01/09 10:40:54;;;;;;;;;0.00;0.00;;;;;6.24;72.80;100244.47;5049349;28;45497;-82
2022/01/09 10:43:21;;;;;;;;;0.00;0.00;;;;;6.11;73.29;100211.47;5040839;28;45570;-81
2022/01/09 10:45:59;;;;;;;;;0.00;0.00;;;;;6.27;73.41;100251.38;5039697;28;46186;-82
2022/01/09 10:48:27;;;;;;;;;0.00;0.00;;;;;6.17;73.65;100248.66;5044004;28;45451;-83
2022/01/09 10:50:53;;;;;;;;;0.00;0.00;;;;;6.33;73.15;100291.16;5038088;28;45767;-83
2022/01/09 10:53:23;;;;;;;;;0.00;0.00;;;;;6.34;72.92;100287.72;5045869;28;45385;-84
2022/01/09 10:56:00;;;;;;;;;0.00;0.00;;;;;6.11;72.93;100263.16;5043726;28;45682;-82
2022/01/09 10:58:27;;;;;;;;;1.00;0.00;;;;;6.03;73.05;100258.69;5046304;28;45627;-79
2022/01/09 11:01:14;;;;;;;;;0.00;0.00;;;;;6.23;72.56;100285.78;5034123;28;45444;-81
2022/01/09 11:03:42;;;;;;;;;1.25;0.00;;;;;6.10;72.55;100275.22;5046139;28;45382;-80
2022/01/09 11:06:09;;;;;;;;;1.75;0.00;;;;;6.20;72.45;100282.31;5040412;28;45647;-79
2022/01/09 11:08:36;;;;;;;;;0.00;0.00;;;;;6.26;72.86;100289.31;5028720;28;45571;-79
2022/01/09 11:11:07;;;;;;;;;0.00;0.00;;;;;6.16;72.53;100264.13;5050881;28;45567;-78
2022/01/09 11:13:36;;;;;;;;;0.00;0.00;;;;;6.26;71.99;100289.31;5042819;28;45419;-80
2022/01/09 11:18:46;;;;;;;;;0.00;0.00;;;;;6.11;71.99;100256.28;5049813;28;45614;-78
2022/01/09 11:21:12;;;;;;;;;1.00;1.00;;;;;6.09;72.31;100255.38;5028593;28;45455;-82
2022/01/09 11:23:49;;;;;;;;;0.00;0.00;;;;;6.37;72.11;100273.97;5041577;28;45660;-81
2022/01/09 11:26:16;;;;;;;;;0.00;0.00;;;;;6.19;71.80;100217.66;5055723;28;45695;-82
2022/01/09 11:28:43;;;;;;;;;0.00;0.00;;;;;6.08;71.89;100177.00;5047647;28;45484;-81
2022/01/09 11:31:20;;;;;;;;;0.00;0.00;;;;;6.86;72.03;100272.25;5054084;28;45404;-79
2022/01/09 11:34:23;;;;;;;;;0.00;0.00;;;;;7.03;71.16;100280.28;5058995;28;45426;-79
2022/01/09 11:37:32;;;;;;;;;0.00;0.00;;;;;7.13;71.32;100278.72;5031793;28;47533;-79
2022/01/09 11:39:58;;;;;;;;;0.00;0.00;;;;;7.21;70.58;100279.69;5048843;28;45386;-79